Flight Track Log - Related Links

Times and Time Zones

All times are in EDT time to prevent confusion due to time zone crossing. See the N840RC flight status page for this flight to view local times or setup timezone preferences in your user account.

Time Position Orientation Groundspeed Altitude Reporting Facility
EDT Latitude Longitude Course Direction KTS MPH feet Rate Location/Type
Mon 07:51:40 PM 43.1328 -95.0669 90° East 134 154 5,700  Level Minneapolis Center
Mon 07:52:42 PM 43.1378 -95.0008 84° East 162 186 7,000 1,355 Climbing Minneapolis Center
Mon 07:53:44 PM 43.1439 -94.9242 84° East 177 204 8,500 1,452 Climbing Minneapolis Center
Mon 07:54:46 PM 43.1478 -94.8531 86° East 187 215 10,000 1,512 Climbing Minneapolis Center
Mon 07:55:47 PM 43.1511 -94.7639 87° East 192 221 11,600 1,463 Climbing Minneapolis Center
Mon 07:56:49 PM 43.1556 -94.6861 85° East 198 228 13,000 774 Climbing Minneapolis Center
Mon 07:57:00 PM 43.1896 -94.6652 90° East  Level Estimated
Mon 07:57:51 PM 43.1608 -94.6014 85° East 210 242 13,200  Level Minneapolis Center
Mon 07:58:53 PM 43.1644 -94.5089 87° East 244 281 13,200  Level Minneapolis Center
Mon 07:59:58 PM 43.1694 -94.4136 86° East 252 290 13,200  Level Minneapolis Center
Mon 08:01:00 PM 43.1739 -94.2964 87° East 258 297 13,200  Level Minneapolis Center
Mon 08:02:02 PM 43.1794 -94.2067 85° East 257 296 13,200 -48 Level Minneapolis Center
Mon 08:03:04 PM 43.1847 -94.1086 86° East 261 300 13,100 -49 Descending Minneapolis Center
Mon 08:04:05 PM 43.1878 -94.0106 88° East 260 299 13,100  Level Minneapolis Center
Mon 08:05:07 PM 43.1942 -93.8936 86° East 259 298 13,100  Level Minneapolis Center
Mon 08:06:09 PM 43.1983 -93.7975 87° East 257 296 13,100  Level Minneapolis Center
Mon 08:07:11 PM 43.2031 -93.7000 86° East 258 297 13,100  Level Minneapolis Center
Mon 08:08:13 PM 43.2072 -93.6028 87° East 258 297 13,100  Level Minneapolis Center
Mon 08:09:15 PM 43.2111 -93.5058 87° East 259 298 13,100  Level Minneapolis Center
Mon 08:10:17 PM 43.2161 -93.3878 87° East 259 298 13,100  Level Minneapolis Center
Mon 08:11:19 PM 43.2206 -93.2897 86° East 260 299 13,100  Level Minneapolis Center
Mon 08:12:20 PM 43.2244 -93.1928 87° East 258 297 13,100  Level Minneapolis Center
Mon 08:13:22 PM 43.2292 -93.0944 86° East 261 300 13,100  Level Minneapolis Center
Mon 08:14:24 PM 43.2325 -92.9961 87° East 261 300 13,100  Level Minneapolis Center
Mon 08:15:26 PM 43.2356 -92.8972 88° East 261 300 13,100  Level Minneapolis Center
Mon 08:16:28 PM 43.2397 -92.7789 87° East 261 300 13,100  Level Minneapolis Center
Mon 08:17:30 PM 43.2436 -92.6817 87° East 259 298 13,100  Level Minneapolis Center
Mon 08:18:32 PM 43.2467 -92.5836 88° East 260 299 13,100 -774 Level Minneapolis Center
Mon 08:19:34 PM 43.2492 -92.4822 88° East 262 302 11,500 -1,452 Descending Minneapolis Center
Mon 08:20:36 PM 43.2547 -92.3778 86° East 269 310 10,100 -1,694 Descending Minneapolis Center
Mon 08:21:38 PM 43.2592 -92.2569 87° East 269 310 8,000 -1,805 Descending Minneapolis Center
Mon 08:22:39 PM 43.2633 -92.1581 87° East 267 307 6,400 -1,574 Descending Minneapolis Center

Login

Don't have an account? Register now (free) for customized features, flight alerts, and more!